sensor_id;sensor_type;location;lat;lon;timestamp;pressure;altitude;pressure_sealevel;temperature;humidity
55263;BME280;41125;48.752;9.168;2023-03-01T00:00:03;97563.69;;;-2.27;75.65
55263;BME280;41125;48.752;9.168;2023-03-01T00:00:35;97569.00;;;-2.27;76.47
55263;BME280;41125;48.752;9.168;2023-03-01T00:01:09;97565.09;;;-2.31;76.30
55263;BME280;41125;48.752;9.168;2023-03-01T00:01:41;97568.31;;;-2.36;76.41
55263;BME280;41125;48.752;9.168;2023-03-01T00:02:13;97577.50;;;-2.38;76.44
55263;BME280;41125;48.752;9.168;2023-03-01T00:02:44;97573.84;;;-2.37;76.52
55263;BME280;41125;48.752;9.168;2023-03-01T00:03:15;97567.50;;;-2.36;76.05
55263;BME280;41125;48.752;9.168;2023-03-01T00:03:47;97562.81;;;-2.34;75.79
55263;BME280;41125;48.752;9.168;2023-03-01T00:04:19;97565.09;;;-2.31;75.75
55263;BME280;41125;48.752;9.168;2023-03-01T00:04:50;97568.38;;;-2.29;75.55
55263;BME280;41125;48.752;9.168;2023-03-01T00:05:21;97566.72;;;-2.30;75.42
55263;BME280;41125;48.752;9.168;2023-03-01T00:05:52;97569.16;;;-2.35;75.81
55263;BME280;41125;48.752;9.168;2023-03-01T00:06:25;97571.56;;;-2.40;76.10
55263;BME280;41125;48.752;9.168;2023-03-01T00:06:57;97569.91;;;-2.41;76.28
55263;BME280;41125;48.752;9.168;2023-03-01T00:07:28;97571.56;;;-2.40;76.14
55263;BME280;41125;48.752;9.168;2023-03-01T00:07:59;97573.22;;;-2.39;75.84
55263;BME280;41125;48.752;9.168;2023-03-01T00:08:31;97574.84;;;-2.38;75.68
55263;BME280;41125;48.752;9.168;2023-03-01T00:09:03;97580.16;;;-2.38;76.17
55263;BME280;41125;48.752;9.168;2023-03-01T00:09:36;97573.00;;;-2.38;76.08
55263;BME280;41125;48.752;9.168;2023-03-01T00:10:11;97577.50;;;-2.38;76.33
55263;BME280;41125;48.752;9.168;2023-03-01T00:10:42;97571.19;;;-2.37;76.36
55263;BME280;41125;48.752;9.168;2023-03-01T00:11:25;97573.00;;;-2.38;76.30
55263;BME280;41125;48.752;9.168;2023-03-01T00:11:57;97576.50;;;-2.37;76.40
55263;BME280;41125;48.752;9.168;2023-03-01T00:12:34;97578.13;;;-2.36;76.19
55263;BME280;41125;48.752;9.168;2023-03-01T00:13:07;97574.47;;;-2.35;76.06
55263;BME280;41125;48.752;9.168;2023-03-01T00:13:39;97575.28;;;-2.34;75.88
55263;BME280;41125;48.752;9.168;2023-03-01T00:14:10;97572.44;;;-2.33;75.81
55263;BME280;41125;48.752;9.168;2023-03-01T00:14:52;97576.94;;;-2.33;75.95
55263;BME280;41125;48.752;9.168;2023-03-01T00:15:25;97580.41;;;-2.33;76.03
55263;BME280;41125;48.752;9.168;2023-03-01T00:15:56;97573.44;;;-2.34;75.65
55263;BME280;41125;48.752;9.168;2023-03-01T00:16:38;97577.75;;;-2.33;76.00
55263;BME280;41125;48.752;9.168;2023-03-01T00:17:10;97575.28;;;-2.34;75.76
55263;BME280;41125;48.752;9.168;2023-03-01T00:17:42;97580.41;;;-2.33;75.56
55263;BME280;41125;48.752;9.168;2023-03-01T00:18:13;97579.59;;;-2.33;75.81
55263;BME280;41125;48.752;9.168;2023-03-01T00:18:44;97581.41;;;-2.34;75.65
55263;BME280;41125;48.752;9.168;2023-03-01T00:19:18;97570.78;;;-2.34;75.42
55263;BME280;41125;48.752;9.168;2023-03-01T00:19:50;97576.72;;;-2.32;75.42
55263;BME280;41125;48.752;9.168;2023-03-01T00:20:22;97574.72;;;-2.30;75.14
55263;BME280;41125;48.752;9.168;2023-03-01T00:20:54;97566.72;;;-2.30;75.29
55263;BME280;41125;48.752;9.168;2023-03-01T00:21:26;97577.37;;;-2.30;75.46
55263;BME280;41125;48.752;9.168;2023-03-01T00:21:59;97575.72;;;-2.31;75.94
55263;BME280;41125;48.752;9.168;2023-03-01T00:22:30;97578.38;;;-2.31;75.92
55263;BME280;41125;48.752;9.168;2023-03-01T00:23:01;97578.38;;;-2.31;75.88
55263;BME280;41125;48.752;9.168;2023-03-01T00:23:34;97583.88;;;-2.32;76.26
55263;BME280;41125;48.752;9.168;2023-03-01T00:24:06;97578.75;;;-2.34;76.06
55263;BME280;41125;48.752;9.168;2023-03-01T00:24:37;97576.94;;;-2.33;76.28
55263;BME280;41125;48.752;9.168;2023-03-01T00:25:09;97581.41;;;-2.34;76.41
55263;BME280;41125;48.752;9.168;2023-03-01T00:25:42;97575.28;;;-2.34;76.36
55263;BME280;41125;48.752;9.168;2023-03-01T00:26:15;97577.13;;;-2.35;76.10
55263;BME280;41125;48.752;9.168;2023-03-01T00:26:47;97583.44;;;-2.36;75.99
55263;BME280;41125;48.752;9.168;2023-03-01T00:27:18;97577.69;;;-2.40;75.89
55263;BME280;41125;48.752;9.168;2023-03-01T00:27:49;97575.88;;;-2.39;76.18
55263;BME280;41125;48.752;9.168;2023-03-01T00:28:21;97584.84;;;-2.40;76.21
55263;BME280;41125;48.752;9.168;2023-03-01T00:28:56;97584.84;;;-2.40;76.52
55263;BME280;41125;48.752;9.168;2023-03-01T00:29:28;97584.66;;;-2.39;76.25
55263;BME280;41125;48.752;9.168;2023-03-01T00:29:59;97578.53;;;-2.39;76.16
55263;BME280;41125;48.752;9.168;2023-03-01T00:30:30;97584.47;;;-2.37;76.03
55263;BME280;41125;48.752;9.168;2023-03-01T00:31:06;97574.84;;;-2.38;75.80
55263;BME280;41125;48.752;9.168;2023-03-01T00:31:38;97579.78;;;-2.35;75.70
55263;BME280;41125;48.752;9.168;2023-03-01T00:32:09;97573.62;;;-2.36;75.80
55263;BME280;41125;48.752;9.168;2023-03-01T00:32:41;97577.13;;;-2.35;75.71
55263;BME280;41125;48.752;9.168;2023-03-01T00:33:12;97577.94;;;-2.34;75.37
55263;BME280;41125;48.752;9.168;2023-03-01T00:33:44;97569.97;;;-2.34;75.44
55263;BME280;41125;48.752;9.168;2023-03-01T00:34:15;97576.09;;;-2.34;75.55
55263;BME280;41125;48.752;9.168;2023-03-01T00:34:47;97571.81;;;-2.35;75.49
55263;BME280;41125;48.752;9.168;2023-03-01T00:35:25;97580.59;;;-2.34;75.37
55263;BME280;41125;48.752;9.168;2023-03-01T00:35:58;97577.75;;;-2.33;75.51
55263;BME280;41125;48.752;9.168;2023-03-01T00:36:33;97570.16;;;-2.36;75.57
55263;BME280;41125;48.752;9.168;2023-03-01T00:37:05;97574.28;;;-2.33;75.44
55263;BME280;41125;48.752;9.168;2023-03-01T00:37:36;97580.59;;;-2.34;75.47
55263;BME280;41125;48.752;9.168;2023-03-01T00:38:08;97573.44;;;-2.34;75.35
55263;BME280;41125;48.752;9.168;2023-03-01T00:38:42;97574.47;;;-2.35;75.55
55263;BME280;41125;48.752;9.168;2023-03-01T00:39:15;97576.09;;;-2.34;75.24
55263;BME280;41125;48.752;9.168;2023-03-01T00:39:47;97576.09;;;-2.34;75.62
55263;BME280;41125;48.752;9.168;2023-03-01T00:40:18;97577.75;;;-2.33;75.45
55263;BME280;41125;48.752;9.168;2023-03-01T00:40:50;97574.28;;;-2.33;75.24
55263;BME280;41125;48.752;9.168;2023-03-01T00:41:22;97576.09;;;-2.34;75.41
55263;BME280;41125;48.752;9.168;2023-03-01T00:41:54;97574.47;;;-2.35;75.55
55263;BME280;41125;48.752;9.168;2023-03-01T00:42:27;97575.47;;;-2.36;75.58
55263;BME280;41125;48.752;9.168;2023-03-01T00:42:58;97578.34;;;-2.38;75.52
55263;BME280;41125;48.752;9.168;2023-03-01T00:43:31;97568.91;;;-2.40;75.57
55263;BME280;41125;48.752;9.168;2023-03-01T00:44:07;97572.38;;;-2.40;75.36
55263;BME280;41125;48.752;9.168;2023-03-01T00:44:38;97571.38;;;-2.39;75.42
55263;BME280;41125;48.752;9.168;2023-03-01T00:45:10;97567.88;;;-2.39;75.76
55263;BME280;41125;48.752;9.168;2023-03-01T00:45:41;97575.22;;;-2.41;75.70
55263;BME280;41125;48.752;9.168;2023-03-01T00:46:14;97570.94;;;-2.42;75.83
55263;BME280;41125;48.752;9.168;2023-03-01T00:46:47;97567.47;;;-2.43;75.83
55263;BME280;41125;48.752;9.168;2023-03-01T00:47:19;97565.03;;;-2.44;76.10
55263;BME280;41125;48.752;9.168;2023-03-01T00:47:51;97569.31;;;-2.43;76.20
55263;BME280;41125;48.752;9.168;2023-03-01T00:48:22;97569.91;;;-2.41;75.83
55263;BME280;41125;48.752;9.168;2023-03-01T00:48:54;97564.59;;;-2.41;75.77
55263;BME280;41125;48.752;9.168;2023-03-01T00:49:25;97563.78;;;-2.42;76.40
55263;BME280;41125;48.752;9.168;2023-03-01T00:49:58;97570.34;;;-2.44;76.57
55263;BME280;41125;48.752;9.168;2023-03-01T00:50:30;97566.22;;;-2.47;76.50
55263;BME280;41125;48.752;9.168;2023-03-01T00:51:08;97567.44;;;-2.49;76.18
55263;BME280;41125;48.752;9.168;2023-03-01T00:51:41;97566.81;;;-2.51;76.42
55263;BME280;41125;48.752;9.168;2023-03-01T00:52:14;97570.28;;;-2.51;76.24
55263;BME280;41125;48.752;9.168;2023-03-01T00:52:46;97571.09;;;-2.50;75.99
55263;BME280;41125;48.752;9.168;2023-03-01T00:53:17;97575.22;;;-2.48;75.90
55263;BME280;41125;48.752;9.168;2023-03-01T00:53:53;97574.19;;;-2.47;75.91
55263;BME280;41125;48.752;9.168;2023-03-01T00:54:25;97569.72;;;-2.46;75.77
55263;BME280;41125;48.752;9.168;2023-03-01T00:54:57;97565.22;;;-2.46;75.84
55263;BME280;41125;48.752;9.168;2023-03-01T00:55:28;97563.38;;;-2.45;76.10
55263;BME280;41125;48.752;9.168;2023-03-01T00:56:03;97567.06;;;-2.46;76.18
55263;BME280;41125;48.752;9.168;2023-03-01T00:56:34;97567.88;;;-2.46;76.36
55263;BME280;41125;48.752;9.168;2023-03-01T00:57:05;97563.38;;;-2.45;76.78
55263;BME280;41125;48.752;9.168;2023-03-01T00:57:37;97565.41;;;-2.47;76.72
55263;BME280;41125;48.752;9.168;2023-03-01T00:58:08;97560.91;;;-2.47;76.50
55263;BME280;41125;48.752;9.168;2023-03-01T00:58:40;97564.41;;;-2.46;76.55
55263;BME280;41125;48.752;9.168;2023-03-01T00:59:12;97567.06;;;-2.46;76.64
55263;BME280;41125;48.752;9.168;2023-03-01T00:59:43;97569.91;;;-2.48;76.62
55263;BME280;41125;48.752;9.168;2023-03-01T01:00:16;97564.16;;;-2.51;76.59
55263;BME280;41125;48.752;9.168;2023-03-01T01:00:48;97564.53;;;-2.54;76.79
55263;BME280;41125;48.752;9.168;2023-03-01T01:01:22;97569.84;;;-2.54;76.96
55263;BME280;41125;48.752;9.168;2023-03-01T01:01:54;97564.72;;;-2.56;76.92
55263;BME280;41125;48.752;9.168;2023-03-01T01:02:25;97566.56;;;-2.56;76.99
55263;BME280;41125;48.752;9.168;2023-03-01T01:02:57;97565.75;;;-2.57;76.80
55263;BME280;41125;48.752;9.168;2023-03-01T01:03:28;97564.91;;;-2.57;76.70
55263;BME280;41125;48.752;9.168;2023-03-01T01:04:02;97571.06;;;-2.57;76.89
55263;BME280;41125;48.752;9.168;2023-03-01T01:04:34;97564.91;;;-2.57;76.89
55263;BME280;41125;48.752;9.168;2023-03-01T01:05:06;97557.13;;;-2.59;76.97
55263;BME280;41125;48.752;9.168;2023-03-01T01:05:38;97555.88;;;-2.63;77.13
55263;BME280;41125;48.752;9.168;2023-03-01T01:06:17;97559.12;;;-2.67;77.30
55263;BME280;41125;48.752;9.168;2023-03-01T01:06:49;97560.13;;;-2.68;77.63
55263;BME280;41125;48.752;9.168;2023-03-01T01:07:20;97561.97;;;-2.69;77.50
55263;BME280;41125;48.752;9.168;2023-03-01T01:07:52;97564.44;;;-2.67;77.31
55263;BME280;41125;48.752;9.168;2023-03-01T01:08:23;97556.25;;;-2.66;77.19
55263;BME280;41125;48.752;9.168;2023-03-01T01:08:55;97557.09;;;-2.65;77.72
55263;BME280;41125;48.752;9.168;2023-03-01T01:09:27;97552.78;;;-2.66;77.77
55263;BME280;41125;48.752;9.168;2023-03-01T01:09:58;97555.44;;;-2.66;77.74
55263;BME280;41125;48.752;9.168;2023-03-01T01:10:30;97555.44;;;-2.66;77.46
55263;BME280;41125;48.752;9.168;2023-03-01T01:11:01;97554.44;;;-2.65;77.90
55263;BME280;41125;48.752;9.168;2023-03-01T01:11:33;97554.44;;;-2.65;77.83
55263;BME280;41125;48.752;9.168;2023-03-01T01:12:06;97558.72;;;-2.64;78.11
55263;BME280;41125;48.752;9.168;2023-03-01T01:12:38;97553.41;;;-2.64;78.14
55263;BME280;41125;48.752;9.168;2023-03-01T01:13:09;97556.06;;;-2.64;78.12
55263;BME280;41125;48.752;9.168;2023-03-01T01:13:41;97547.28;;;-2.65;77.65
55263;BME280;41125;48.752;9.168;2023-03-01T01:14:13;97553.41;;;-2.64;77.85
55263;BME280;41125;48.752;9.168;2023-03-01T01:14:45;97551.78;;;-2.65;77.73
55263;BME280;41125;48.752;9.168;2023-03-01T01:15:17;97553.59;;;-2.66;77.99
55263;BME280;41125;48.752;9.168;2023-03-01T01:15:48;97553.59;;;-2.66;77.71
55263;BME280;41125;48.752;9.168;2023-03-01T01:16:22;97550.50;;;-2.70;78.03
55263;BME280;41125;48.752;9.168;2023-03-01T01:16:54;97550.50;;;-2.70;78.22
55263;BME280;41125;48.752;9.168;2023-03-01T01:17:25;97552.16;;;-2.68;77.81
55263;BME280;41125;48.752;9.168;2023-03-01T01:17:56;97552.16;;;-2.68;77.89
55263;BME280;41125;48.752;9.168;2023-03-01T01:18:27;97552.78;;;-2.66;77.75
55263;BME280;41125;48.752;9.168;2023-03-01T01:18:59;97550.94;;;-2.66;77.76
55263;BME280;41125;48.752;9.168;2023-03-01T01:19:30;97546.47;;;-2.65;77.72
55263;BME280;41125;48.752;9.168;2023-03-01T01:20:02;97550.12;;;-2.66;77.62
55263;BME280;41125;48.752;9.168;2023-03-01T01:20:35;97558.91;;;-2.66;77.63
55263;BME280;41125;48.752;9.168;2023-03-01T01:21:13;97549.50;;;-2.68;77.35
55263;BME280;41125;48.752;9.168;2023-03-01T01:21:45;97559.88;;;-2.74;77.56
55263;BME280;41125;48.752;9.168;2023-03-01T01:22:17;97560.25;;;-2.77;77.45
55263;BME280;41125;48.752;9.168;2023-03-01T01:22:48;97546.37;;;-2.79;77.64
55263;BME280;41125;48.752;9.168;2023-03-01T01:23:20;97553.34;;;-2.78;77.56
55263;BME280;41125;48.752;9.168;2023-03-01T01:23:52;97552.50;;;-2.78;77.78
55263;BME280;41125;48.752;9.168;2023-03-01T01:24:24;97560.25;;;-2.77;77.93
55263;BME280;41125;48.752;9.168;2023-03-01T01:24:55;97547.59;;;-2.75;78.28
55263;BME280;41125;48.752;9.168;2023-03-01T01:25:26;97552.09;;;-2.75;78.13
55263;BME280;41125;48.752;9.168;2023-03-01T01:26:07;97549.25;;;-2.74;78.34
55263;BME280;41125;48.752;9.168;2023-03-01T01:26:38;97554.56;;;-2.74;78.23
55263;BME280;41125;48.752;9.168;2023-03-01T01:27:10;97548.25;;;-2.73;78.26
55263;BME280;41125;48.752;9.168;2023-03-01T01:27:41;97550.91;;;-2.73;78.14
55263;BME280;41125;48.752;9.168;2023-03-01T01:28:13;97551.53;;;-2.71;78.09
55263;BME280;41125;48.752;9.168;2023-03-01T01:28:45;97547.03;;;-2.70;78.14
55263;BME280;41125;48.752;9.168;2023-03-01T01:29:16;97547.59;;;-2.75;77.84
55263;BME280;41125;48.752;9.168;2023-03-01T01:29:47;97544.31;;;-2.77;78.04
55263;BME280;41125;48.752;9.168;2023-03-01T01:30:19;97542.72;;;-2.78;78.29
55263;BME280;41125;48.752;9.168;2023-03-01T01:30:50;97545.16;;;-2.76;77.67
55263;BME280;41125;48.752;9.168;2023-03-01T01:31:22;97537.81;;;-2.74;77.63
55263;BME280;41125;48.752;9.168;2023-03-01T01:31:54;97540.28;;;-2.73;77.73
55263;BME280;41125;48.752;9.168;2023-03-01T01:32:25;97540.28;;;-2.73;78.06
55263;BME280;41125;48.752;9.168;2023-03-01T01:32:57;97541.09;;;-2.72;78.03
55263;BME280;41125;48.752;9.168;2023-03-01T01:33:28;97534.97;;;-2.73;77.84
55263;BME280;41125;48.752;9.168;2023-03-01T01:34:02;97537.63;;;-2.73;77.68
55263;BME280;41125;48.752;9.168;2023-03-01T01:34:34;97536.41;;;-2.70;77.51
55263;BME280;41125;48.752;9.168;2023-03-01T01:35:06;97539.13;;;-2.63;76.92
55263;BME280;41125;48.752;9.168;2023-03-01T01:35:37;97534.44;;;-2.61;76.70
55263;BME280;41125;48.752;9.168;2023-03-01T01:36:10;97540.38;;;-2.59;76.58
55263;BME280;41125;48.752;9.168;2023-03-01T01:36:46;97535.06;;;-2.59;76.79
55263;BME280;41125;48.752;9.168;2023-03-01T01:37:18;97536.91;;;-2.60;76.68
55263;BME280;41125;48.752;9.168;2023-03-01T01:37:49;97537.09;;;-2.61;77.08
55263;BME280;41125;48.752;9.168;2023-03-01T01:38:22;97539.94;;;-2.63;76.86
55263;BME280;41125;48.752;9.168;2023-03-01T01:38:53;97542.78;;;-2.64;77.27
55263;BME280;41125;48.752;9.168;2023-03-01T01:39:25;97543.81;;;-2.65;76.93
55263;BME280;41125;48.752;9.168;2023-03-01T01:40:02;97540.31;;;-2.66;77.14
55263;BME280;41125;48.752;9.168;2023-03-01T01:40:43;97538.50;;;-2.65;77.34
55263;BME280;41125;48.752;9.168;2023-03-01T01:41:15;97543.81;;;-2.65;77.46
55263;BME280;41125;48.752;9.168;2023-03-01T01:41:47;97536.47;;;-2.63;77.11
55263;BME280;41125;48.752;9.168;2023-03-01T01:42:19;97541.59;;;-2.62;77.34
55263;BME280;41125;48.752;9.168;2023-03-01T01:42:50;97543.22;;;-2.61;77.21
55263;BME280;41125;48.752;9.168;2023-03-01T01:43:30;97537.91;;;-2.61;76.88
55263;BME280;41125;48.752;9.168;2023-03-01T01:44:23;97535.06;;;-2.59;76.97
55263;BME280;41125;48.752;9.168;2023-03-01T01:46:33;97532.59;;;-2.61;77.86
55263;BME280;41125;48.752;9.168;2023-03-01T01:47:18;97532.16;;;-2.64;77.69
55263;BME280;41125;48.752;9.168;2023-03-01T01:47:51;97532.78;;;-2.62;77.37
55263;BME280;41125;48.752;9.168;2023-03-01T01:48:26;97530.97;;;-2.62;77.50
55263;BME280;41125;48.752;9.168;2023-03-01T01:50:17;97528.94;;;-2.60;76.78
55263;BME280;41125;48.752;9.168;2023-03-01T01:50:59;97530.75;;;-2.60;76.97
55263;BME280;41125;48.752;9.168;2023-03-01T01:51:39;97528.09;;;-2.60;76.88
55263;BME280;41125;48.752;9.168;2023-03-01T01:52:21;97528.09;;;-2.60;76.80
55263;BME280;41125;48.752;9.168;2023-03-01T01:52:53;97528.09;;;-2.60;77.03
55263;BME280;41125;48.752;9.168;2023-03-01T01:53:27;97530.75;;;-2.60;76.82
55263;BME280;41125;48.752;9.168;2023-03-01T01:54:00;97529.94;;;-2.61;77.11
55263;BME280;41125;48.752;9.168;2023-03-01T01:54:45;97523.81;;;-2.61;76.99
55263;BME280;41125;48.752;9.168;2023-03-01T01:55:21;97528.09;;;-2.60;76.97
55263;BME280;41125;48.752;9.168;2023-03-01T01:55:58;97523.19;;;-2.63;77.57
55263;BME280;41125;48.752;9.168;2023-03-01T01:56:31;97524.81;;;-2.62;77.40
55263;BME280;41125;48.752;9.168;2023-03-01T01:57:07;97521.16;;;-2.61;77.08
55263;BME280;41125;48.752;9.168;2023-03-01T01:58:01;97522.78;;;-2.60;77.03
55263;BME280;41125;48.752;9.168;2023-03-01T01:58:36;97519.13;;;-2.59;77.06
55263;BME280;41125;48.752;9.168;2023-03-01T01:59:10;97519.75;;;-2.57;77.55
55263;BME280;41125;48.752;9.168;2023-03-01T01:59:45;97518.72;;;-2.56;77.46
55263;BME280;41125;48.752;9.168;2023-03-01T02:00:26;97515.06;;;-2.55;77.09
55263;BME280;41125;48.752;9.168;2023-03-01T02:00:58;97521.81;;;-2.53;76.99
55263;BME280;41125;48.752;9.168;2023-03-01T02:01:33;97512.66;;;-2.50;76.92
55263;BME280;41125;48.752;9.168;2023-03-01T02:02:05;97517.97;;;-2.50;77.33
55263;BME280;41125;48.752;9.168;2023-03-01T02:02:38;97516.13;;;-2.50;77.62
55263;BME280;41125;48.752;9.168;2023-03-01T02:03:18;97520.00;;;-2.52;77.56
55263;BME280;41125;48.752;9.168;2023-03-01T02:03:50;97517.34;;;-2.52;77.68
55263;BME280;41125;48.752;9.168;2023-03-01T02:04:23;97520.00;;;-2.52;77.77
55263;BME280;41125;48.752;9.168;2023-03-01T02:05:03;97514.69;;;-2.52;77.61
55263;BME280;41125;48.752;9.168;2023-03-01T02:06:04;97516.31;;;-2.51;77.40
55263;BME280;41125;48.752;9.168;2023-03-01T02:06:41;97512.84;;;-2.52;77.67
55263;BME280;41125;48.752;9.168;2023-03-01T02:07:20;97513.84;;;-2.53;78.06
55263;BME280;41125;48.752;9.168;2023-03-01T02:07:56;97521.00;;;-2.53;78.09
55263;BME280;41125;48.752;9.168;2023-03-01T02:08:31;97511.41;;;-2.54;77.82
55263;BME280;41125;48.752;9.168;2023-03-01T02:09:14;97514.25;;;-2.56;78.06
55263;BME280;41125;48.752;9.168;2023-03-01T02:09:52;97516.72;;;-2.54;77.91
55263;BME280;41125;48.752;9.168;2023-03-01T02:10:25;97518.34;;;-2.53;77.69
55263;BME280;41125;48.752;9.168;2023-03-01T02:10:58;97512.84;;;-2.52;77.18
55263;BME280;41125;48.752;9.168;2023-03-01T02:11:34;97497.53;;;-2.50;77.03
55263;BME280;41125;48.752;9.168;2023-03-01T02:12:08;97503.66;;;-2.49;77.27
55263;BME280;41125;48.752;9.168;2023-03-01T02:12:40;97496.31;;;-2.47;77.07
55263;BME280;41125;48.752;9.168;2023-03-01T02:13:12;97498.97;;;-2.47;77.40
55263;BME280;41125;48.752;9.168;2023-03-01T02:13:44;97498.97;;;-2.47;77.81
55263;BME280;41125;48.752;9.168;2023-03-01T02:14:18;97497.97;;;-2.46;77.56
55263;BME280;41125;48.752;9.168;2023-03-01T02:14:49;97497.97;;;-2.46;77.53
55263;BME280;41125;48.752;9.168;2023-03-01T02:15:20;97496.31;;;-2.47;77.48
55263;BME280;41125;48.752;9.168;2023-03-01T02:15:52;97499.59;;;-2.45;77.39
55263;BME280;41125;48.752;9.168;2023-03-01T02:16:25;97495.94;;;-2.44;77.48
55263;BME280;41125;48.752;9.168;2023-03-01T02:16:57;97493.87;;;-2.42;76.93
55263;BME280;41125;48.752;9.168;2023-03-01T02:17:28;97493.47;;;-2.39;76.96
55263;BME280;41125;48.752;9.168;2023-03-01T02:18:01;97491.44;;;-2.37;76.89
55263;BME280;41125;48.752;9.168;2023-03-01T02:18:33;97491.44;;;-2.37;76.65
55263;BME280;41125;48.752;9.168;2023-03-01T02:19:05;97498.41;;;-2.36;76.58
55263;BME280;41125;48.752;9.168;2023-03-01T02:22:02;97493.09;;;-2.36;77.23
55263;BME280;41125;48.752;9.168;2023-03-01T02:22:40;97485.75;;;-2.34;77.09
55263;BME280;41125;48.752;9.168;2023-03-01T02:23:15;97489.03;;;-2.32;77.18
55263;BME280;41125;48.752;9.168;2023-03-01T02:23:46;97484.53;;;-2.31;76.76
55263;BME280;41125;48.752;9.168;2023-03-01T02:27:09;97480.47;;;-2.27;76.11
55263;BME280;41125;48.752;9.168;2023-03-01T02:27:59;97482.91;;;-2.26;76.11
55263;BME280;41125;48.752;9.168;2023-03-01T02:28:36;97481.47;;;-2.28;76.53
55263;BME280;41125;48.752;9.168;2023-03-01T02:29:08;97477.19;;;-2.29;76.62
55263;BME280;41125;48.752;9.168;2023-03-01T02:29:40;97483.31;;;-2.29;76.46
55263;BME280;41125;48.752;9.168;2023-03-01T02:30:15;97474.31;;;-2.28;76.52
55263;BME280;41125;48.752;9.168;2023-03-01T02:30:48;97472.69;;;-2.29;77.05
55263;BME280;41125;48.752;9.168;2023-03-01T02:32:00;97474.72;;;-2.31;76.48
55263;BME280;41125;48.752;9.168;2023-03-01T02:32:34;97480.84;;;-2.30;76.51
55263;BME280;41125;48.752;9.168;2023-03-01T02:33:06;97485.97;;;-2.29;76.29
55263;BME280;41125;48.752;9.168;2023-03-01T02:33:39;97480.66;;;-2.29;76.39
55263;BME280;41125;48.752;9.168;2023-03-01T02:34:16;97479.63;;;-2.28;76.03
55263;BME280;41125;48.752;9.168;2023-03-01T02:34:48;97479.44;;;-2.26;76.41
55263;BME280;41125;48.752;9.168;2023-03-01T02:35:21;97475.97;;;-2.27;75.96
55263;BME280;41125;48.752;9.168;2023-03-01T02:35:55;97474.31;;;-2.28;76.25
55263;BME280;41125;48.752;9.168;2023-03-01T02:36:39;97476.97;;;-2.28;75.88
55263;BME280;41125;48.752;9.168;2023-03-01T02:37:14;97476.97;;;-2.28;76.18
55263;BME280;41125;48.752;9.168;2023-03-01T02:37:51;97470.03;;;-2.29;76.57
55263;BME280;41125;48.752;9.168;2023-03-01T02:38:23;97469.81;;;-2.27;76.34
55263;BME280;41125;48.752;9.168;2023-03-01T02:38:57;97465.34;;;-2.27;76.17
55263;BME280;41125;48.752;9.168;2023-03-01T02:39:46;97473.13;;;-2.25;76.49
55263;BME280;41125;48.752;9.168;2023-03-01T02:40:20;97466.97;;;-2.26;76.52
55263;BME280;41125;48.752;9.168;2023-03-01T02:40:54;97468.63;;;-2.25;76.80
55263;BME280;41125;48.752;9.168;2023-03-01T02:41:32;97468.41;;;-2.23;76.44
55263;BME280;41125;48.752;9.168;2023-03-01T02:42:06;97465.75;;;-2.23;76.77
55263;BME280;41125;48.752;9.168;2023-03-01T02:42:51;97464.94;;;-2.24;76.27
55263;BME280;41125;48.752;9.168;2023-03-01T02:43:27;97457.59;;;-2.22;76.19
55263;BME280;41125;48.752;9.168;2023-03-01T02:43:59;97464.53;;;-2.21;75.77
55263;BME280;41125;48.752;9.168;2023-03-01T02:44:31;97467.00;;;-2.19;75.95
55263;BME280;41125;48.752;9.168;2023-03-01T02:45:04;97463.34;;;-2.18;75.71
55263;BME280;41125;48.752;9.168;2023-03-01T02:45:36;97469.47;;;-2.18;76.23
55263;BME280;41125;48.752;9.168;2023-03-01T02:46:21;97457.00;;;-2.17;75.93
55263;BME280;41125;48.752;9.168;2023-03-01T02:46:56;97470.28;;;-2.17;76.31
55263;BME280;41125;48.752;9.168;2023-03-01T02:47:28;97471.13;;;-2.17;76.25
55263;BME280;41125;48.752;9.168;2023-03-01T02:47:59;97468.44;;;-2.17;76.26
55263;BME280;41125;48.752;9.168;2023-03-01T02:48:40;97470.09;;;-2.16;76.13
55263;BME280;41125;48.752;9.168;2023-03-01T02:49:22;97469.91;;;-2.14;76.07
55263;BME280;41125;48.752;9.168;2023-03-01T02:49:55;97469.69;;;-2.13;76.45
55263;BME280;41125;48.752;9.168;2023-03-01T02:51:03;97467.47;;;-2.09;76.38
55263;BME280;41125;48.752;9.168;2023-03-01T02:51:52;97464.56;;;-2.08;75.96
55263;BME280;41125;48.752;9.168;2023-03-01T02:52:57;97457.22;;;-2.06;76.07
55263;BME280;41125;48.752;9.168;2023-03-01T02:55:09;97456.84;;;-2.09;76.40
55263;BME280;41125;48.752;9.168;2023-03-01T02:55:41;97452.34;;;-2.09;76.34
55263;BME280;41125;48.752;9.168;2023-03-01T02:56:13;97449.69;;;-2.09;76.25
55263;BME280;41125;48.752;9.168;2023-03-01T02:56:45;97453.94;;;-2.08;76.38
55263;BME280;41125;48.752;9.168;2023-03-01T02:57:20;97450.69;;;-2.10;75.85
55263;BME280;41125;48.752;9.168;2023-03-01T02:57:53;97445.78;;;-2.13;75.89
55263;BME280;41125;48.752;9.168;2023-03-01T02:58:26;97452.09;;;-2.14;76.07
55263;BME280;41125;48.752;9.168;2023-03-01T02:58:59;97448.81;;;-2.16;75.78
55263;BME280;41125;48.752;9.168;2023-03-01T02:59:33;97441.66;;;-2.15;75.96
55263;BME280;41125;48.752;9.168;2023-03-01T03:00:13;97452.31;;;-2.15;75.94
55263;BME280;41125;48.752;9.168;2023-03-01T03:00:50;97444.12;;;-2.14;75.69
55263;BME280;41125;48.752;9.168;2023-03-01T03:01:22;97445.78;;;-2.13;75.68
55263;BME280;41125;48.752;9.168;2023-03-01T03:01:53;97444.12;;;-2.14;75.84
55263;BME280;41125;48.752;9.168;2023-03-01T03:02:28;97447.19;;;-2.17;75.79
55263;BME280;41125;48.752;9.168;2023-03-01T03:03:08;97453.13;;;-2.15;75.93
55263;BME280;41125;48.752;9.168;2023-03-01T03:03:41;97447.81;;;-2.15;75.75
55263;BME280;41125;48.752;9.168;2023-03-01T03:04:15;97453.13;;;-2.15;76.13
55263;BME280;41125;48.752;9.168;2023-03-01T03:04:49;97446.16;;;-2.16;76.33
55263;BME280;41125;48.752;9.168;2023-03-01T03:05:24;97448.63;;;-2.14;76.48
55263;BME280;41125;48.752;9.168;2023-03-01T03:05:55;97452.31;;;-2.15;76.72
55263;BME280;41125;48.752;9.168;2023-03-01T03:06:26;97447.81;;;-2.15;76.36
55263;BME280;41125;48.752;9.168;2023-03-01T03:06:58;97444.12;;;-2.14;76.44
55263;BME280;41125;48.752;9.168;2023-03-01T03:07:29;97447.41;;;-2.12;76.27
55263;BME280;41125;48.752;9.168;2023-03-01T03:08:04;97447.41;;;-2.12;76.74
55263;BME280;41125;48.752;9.168;2023-03-01T03:08:35;97448.22;;;-2.11;76.55
55263;BME280;41125;48.752;9.168;2023-03-01T03:09:07;97449.06;;;-2.11;76.48
55263;BME280;41125;48.752;9.168;2023-03-01T03:09:43;97443.72;;;-2.11;76.49